sensor_id;sensor_type;location;lat;lon;timestamp;temperature;humidity
6270;DHT22;3168;51.684;6.954;2022-08-25T00:00:47;22.50;1.00
6270;DHT22;3168;51.684;6.954;2022-08-25T00:03:13;22.40;1.00
6270;DHT22;3168;51.684;6.954;2022-08-25T00:05:38;22.40;1.00
6270;DHT22;3168;51.684;6.954;2022-08-25T00:08:04;22.30;1.00
6270;DHT22;3168;51.684;6.954;2022-08-25T00:10:31;22.20;1.00
6270;DHT22;3168;51.684;6.954;2022-08-25T00:12:56;22.10;1.00
6270;DHT22;3168;51.684;6.954;2022-08-25T00:15:22;22.10;1.00
6270;DHT22;3168;51.684;6.954;2022-08-25T00:17:47;22.10;1.00
6270;DHT22;3168;51.684;6.954;2022-08-25T00:20:14;22.00;1.00
6270;DHT22;3168;51.684;6.954;2022-08-25T00:22:39;22.00;1.00
6270;DHT22;3168;51.684;6.954;2022-08-25T00:25:06;22.00;1.00
6270;DHT22;3168;51.684;6.954;2022-08-25T00:27:31;22.00;1.00
6270;DHT22;3168;51.684;6.954;2022-08-25T00:29:57;21.90;1.00
6270;DHT22;3168;51.684;6.954;2022-08-25T00:32:24;21.90;1.00
6270;DHT22;3168;51.684;6.954;2022-08-25T00:34:50;21.80;1.00
6270;DHT22;3168;51.684;6.954;2022-08-25T00:37:15;21.80;1.00
6270;DHT22;3168;51.684;6.954;2022-08-25T00:39:41;21.80;1.00
6270;DHT22;3168;51.684;6.954;2022-08-25T00:42:07;21.80;1.00
6270;DHT22;3168;51.684;6.954;2022-08-25T00:44:33;21.80;1.00
6270;DHT22;3168;51.684;6.954;2022-08-25T00:46:59;21.80;1.00
6270;DHT22;3168;51.684;6.954;2022-08-25T00:52:10;21.80;1.00
6270;DHT22;3168;51.684;6.954;2022-08-25T00:54:37;21.70;1.00
6270;DHT22;3168;51.684;6.954;2022-08-25T00:57:01;21.70;1.00
6270;DHT22;3168;51.684;6.954;2022-08-25T00:59:27;21.70;1.00
6270;DHT22;3168;51.684;6.954;2022-08-25T01:01:53;21.70;1.00
6270;DHT22;3168;51.684;6.954;2022-08-25T01:04:19;21.70;1.00
6270;DHT22;3168;51.684;6.954;2022-08-25T01:06:44;21.70;1.00
6270;DHT22;3168;51.684;6.954;2022-08-25T01:09:12;21.70;1.00
6270;DHT22;3168;51.684;6.954;2022-08-25T01:11:37;21.60;1.00
6270;DHT22;3168;51.684;6.954;2022-08-25T01:14:03;21.70;1.00
6270;DHT22;3168;51.684;6.954;2022-08-25T01:16:29;21.60;1.00
6270;DHT22;3168;51.684;6.954;2022-08-25T01:18:56;21.40;1.00
6270;DHT22;3168;51.684;6.954;2022-08-25T01:21:23;21.30;1.00
6270;DHT22;3168;51.684;6.954;2022-08-25T01:23:48;21.20;1.00
6270;DHT22;3168;51.684;6.954;2022-08-25T01:26:24;21.20;1.00
6270;DHT22;3168;51.684;6.954;2022-08-25T01:28:50;21.20;1.00
6270;DHT22;3168;51.684;6.954;2022-08-25T01:31:21;21.20;1.00
6270;DHT22;3168;51.684;6.954;2022-08-25T01:33:47;21.10;1.00
6270;DHT22;3168;51.684;6.954;2022-08-25T01:36:16;21.10;1.00
6270;DHT22;3168;51.684;6.954;2022-08-25T01:38:39;21.00;1.00
6270;DHT22;3168;51.684;6.954;2022-08-25T01:41:05;20.90;1.00
6270;DHT22;3168;51.684;6.954;2022-08-25T01:43:34;20.90;1.00
6270;DHT22;3168;51.684;6.954;2022-08-25T01:45:57;20.70;1.00
6270;DHT22;3168;51.684;6.954;2022-08-25T01:48:23;20.60;1.00
6270;DHT22;3168;51.684;6.954;2022-08-25T01:50:49;20.70;1.00
6270;DHT22;3168;51.684;6.954;2022-08-25T01:53:20;20.60;1.00
6270;DHT22;3168;51.684;6.954;2022-08-25T01:55:43;20.60;1.00
6270;DHT22;3168;51.684;6.954;2022-08-25T01:58:15;20.60;1.00
6270;DHT22;3168;51.684;6.954;2022-08-25T02:00:43;20.60;1.00
6270;DHT22;3168;51.684;6.954;2022-08-25T02:03:06;20.60;1.00
6270;DHT22;3168;51.684;6.954;2022-08-25T02:05:32;20.50;1.00
6270;DHT22;3168;51.684;6.954;2022-08-25T02:07:58;20.60;1.00
6270;DHT22;3168;51.684;6.954;2022-08-25T02:10:24;20.50;1.00
6270;DHT22;3168;51.684;6.954;2022-08-25T02:12:49;20.60;1.00
6270;DHT22;3168;51.684;6.954;2022-08-25T02:15:15;20.60;1.00
6270;DHT22;3168;51.684;6.954;2022-08-25T02:17:41;20.60;1.00
6270;DHT22;3168;51.684;6.954;2022-08-25T02:20:07;20.60;1.00
6270;DHT22;3168;51.684;6.954;2022-08-25T02:22:33;20.60;1.00
6270;DHT22;3168;51.684;6.954;2022-08-25T02:24:59;20.60;1.00
6270;DHT22;3168;51.684;6.954;2022-08-25T02:27:25;20.60;1.00
6270;DHT22;3168;51.684;6.954;2022-08-25T02:29:51;20.60;1.00
6270;DHT22;3168;51.684;6.954;2022-08-25T02:32:16;20.60;1.00
6270;DHT22;3168;51.684;6.954;2022-08-25T02:34:42;20.60;1.00
6270;DHT22;3168;51.684;6.954;2022-08-25T02:37:08;20.60;1.00
6270;DHT22;3168;51.684;6.954;2022-08-25T02:39:34;20.70;1.00
6270;DHT22;3168;51.684;6.954;2022-08-25T02:42:00;20.70;1.00
6270;DHT22;3168;51.684;6.954;2022-08-25T02:44:26;20.80;1.00
6270;DHT22;3168;51.684;6.954;2022-08-25T02:46:52;20.90;1.00
6270;DHT22;3168;51.684;6.954;2022-08-25T02:49:18;20.90;1.00
6270;DHT22;3168;51.684;6.954;2022-08-25T02:51:44;20.80;1.00
6270;DHT22;3168;51.684;6.954;2022-08-25T02:54:10;20.80;1.00
6270;DHT22;3168;51.684;6.954;2022-08-25T02:56:35;20.70;1.00
6270;DHT22;3168;51.684;6.954;2022-08-25T02:59:01;20.60;1.00
6270;DHT22;3168;51.684;6.954;2022-08-25T03:01:28;20.60;1.00
6270;DHT22;3168;51.684;6.954;2022-08-25T03:03:53;20.60;1.00
6270;DHT22;3168;51.684;6.954;2022-08-25T03:06:20;20.60;1.00
6270;DHT22;3168;51.684;6.954;2022-08-25T03:08:46;20.50;1.00
6270;DHT22;3168;51.684;6.954;2022-08-25T03:11:11;20.40;1.00
6270;DHT22;3168;51.684;6.954;2022-08-25T03:13:38;20.30;1.00
6270;DHT22;3168;51.684;6.954;2022-08-25T03:16:04;20.30;1.00
6270;DHT22;3168;51.684;6.954;2022-08-25T03:18:29;20.20;1.00
6270;DHT22;3168;51.684;6.954;2022-08-25T03:20:55;20.20;1.00
6270;DHT22;3168;51.684;6.954;2022-08-25T03:23:21;20.20;1.00
6270;DHT22;3168;51.684;6.954;2022-08-25T03:25:47;20.10;1.00
6270;DHT22;3168;51.684;6.954;2022-08-25T03:28:18;20.10;1.00
6270;DHT22;3168;51.684;6.954;2022-08-25T03:30:44;20.00;1.00
6270;DHT22;3168;51.684;6.954;2022-08-25T03:33:11;19.90;1.00
6270;DHT22;3168;51.684;6.954;2022-08-25T03:35:36;19.90;1.00
6270;DHT22;3168;51.684;6.954;2022-08-25T03:38:02;19.90;1.00
6270;DHT22;3168;51.684;6.954;2022-08-25T03:40:28;19.80;1.00
6270;DHT22;3168;51.684;6.954;2022-08-25T03:42:54;19.80;1.00
6270;DHT22;3168;51.684;6.954;2022-08-25T03:45:20;19.80;1.00
6270;DHT22;3168;51.684;6.954;2022-08-25T03:47:47;19.70;1.00
6270;DHT22;3168;51.684;6.954;2022-08-25T03:50:12;19.70;1.00
6270;DHT22;3168;51.684;6.954;2022-08-25T03:52:38;19.70;1.00
6270;DHT22;3168;51.684;6.954;2022-08-25T03:55:04;19.60;1.00
6270;DHT22;3168;51.684;6.954;2022-08-25T03:57:30;19.60;1.00
6270;DHT22;3168;51.684;6.954;2022-08-25T03:59:56;19.60;1.00
6270;DHT22;3168;51.684;6.954;2022-08-25T04:02:22;19.60;1.00
6270;DHT22;3168;51.684;6.954;2022-08-25T04:04:48;19.60;1.00
6270;DHT22;3168;51.684;6.954;2022-08-25T04:07:13;19.60;1.00
6270;DHT22;3168;51.684;6.954;2022-08-25T04:09:39;19.60;1.00
6270;DHT22;3168;51.684;6.954;2022-08-25T04:12:05;19.50;1.00
6270;DHT22;3168;51.684;6.954;2022-08-25T04:14:31;19.50;1.00
6270;DHT22;3168;51.684;6.954;2022-08-25T04:16:57;19.50;1.00
6270;DHT22;3168;51.684;6.954;2022-08-25T04:19:23;19.40;1.00
6270;DHT22;3168;51.684;6.954;2022-08-25T04:21:49;19.40;1.00
6270;DHT22;3168;51.684;6.954;2022-08-25T04:24:14;19.50;1.00
6270;DHT22;3168;51.684;6.954;2022-08-25T04:26:41;19.50;1.00
6270;DHT22;3168;51.684;6.954;2022-08-25T04:29:07;19.40;1.00
6270;DHT22;3168;51.684;6.954;2022-08-25T04:31:32;19.50;1.00
6270;DHT22;3168;51.684;6.954;2022-08-25T04:34:00;19.50;1.00
6270;DHT22;3168;51.684;6.954;2022-08-25T04:36:24;19.50;1.00
6270;DHT22;3168;51.684;6.954;2022-08-25T04:38:49;19.50;1.00
6270;DHT22;3168;51.684;6.954;2022-08-25T04:41:17;19.50;1.00
6270;DHT22;3168;51.684;6.954;2022-08-25T04:43:41;19.50;1.00
6270;DHT22;3168;51.684;6.954;2022-08-25T04:46:09;19.50;1.00
6270;DHT22;3168;51.684;6.954;2022-08-25T04:48:34;19.50;1.00
6270;DHT22;3168;51.684;6.954;2022-08-25T04:51:05;19.50;1.00
6270;DHT22;3168;51.684;6.954;2022-08-25T04:53:31;19.60;1.00
6270;DHT22;3168;51.684;6.954;2022-08-25T04:55:56;19.60;1.00
6270;DHT22;3168;51.684;6.954;2022-08-25T04:58:22;19.60;1.00
6270;DHT22;3168;51.684;6.954;2022-08-25T05:00:47;19.60;1.00
6270;DHT22;3168;51.684;6.954;2022-08-25T05:03:13;19.60;1.00
6270;DHT22;3168;51.684;6.954;2022-08-25T05:05:39;19.60;1.00
6270;DHT22;3168;51.684;6.954;2022-08-25T05:08:06;19.70;1.00
6270;DHT22;3168;51.684;6.954;2022-08-25T05:10:32;19.60;1.00
6270;DHT22;3168;51.684;6.954;2022-08-25T05:12:57;19.70;1.00
6270;DHT22;3168;51.684;6.954;2022-08-25T05:15:24;19.70;1.00
6270;DHT22;3168;51.684;6.954;2022-08-25T05:17:55;19.70;1.00
6270;DHT22;3168;51.684;6.954;2022-08-25T05:20:21;19.70;1.00
6270;DHT22;3168;51.684;6.954;2022-08-25T05:22:47;19.80;1.00
6270;DHT22;3168;51.684;6.954;2022-08-25T05:25:12;19.80;1.00
6270;DHT22;3168;51.684;6.954;2022-08-25T05:27:38;19.80;1.00
6270;DHT22;3168;51.684;6.954;2022-08-25T05:30:05;19.80;1.00
6270;DHT22;3168;51.684;6.954;2022-08-25T05:32:31;19.90;1.00
6270;DHT22;3168;51.684;6.954;2022-08-25T05:34:57;20.00;1.00
6270;DHT22;3168;51.684;6.954;2022-08-25T05:37:23;20.00;1.00
6270;DHT22;3168;51.684;6.954;2022-08-25T05:39:49;20.10;1.00
6270;DHT22;3168;51.684;6.954;2022-08-25T05:42:14;20.20;1.00
6270;DHT22;3168;51.684;6.954;2022-08-25T05:44:40;20.20;1.00
6270;DHT22;3168;51.684;6.954;2022-08-25T05:47:06;20.20;1.00
6270;DHT22;3168;51.684;6.954;2022-08-25T05:49:32;20.20;1.00
6270;DHT22;3168;51.684;6.954;2022-08-25T05:51:58;20.30;1.00
6270;DHT22;3168;51.684;6.954;2022-08-25T05:54:23;20.40;1.00
6270;DHT22;3168;51.684;6.954;2022-08-25T05:56:49;20.40;1.00
6270;DHT22;3168;51.684;6.954;2022-08-25T05:59:15;20.50;1.00
6270;DHT22;3168;51.684;6.954;2022-08-25T06:01:41;20.60;1.00
6270;DHT22;3168;51.684;6.954;2022-08-25T06:04:14;20.50;1.00
6270;DHT22;3168;51.684;6.954;2022-08-25T06:06:40;20.70;1.00
6270;DHT22;3168;51.684;6.954;2022-08-25T06:09:05;20.70;1.00
6270;DHT22;3168;51.684;6.954;2022-08-25T06:11:31;20.80;1.00
6270;DHT22;3168;51.684;6.954;2022-08-25T06:13:57;20.90;1.00
6270;DHT22;3168;51.684;6.954;2022-08-25T06:16:23;20.90;1.00
6270;DHT22;3168;51.684;6.954;2022-08-25T06:18:49;21.00;1.00
6270;DHT22;3168;51.684;6.954;2022-08-25T06:21:14;21.10;1.00
6270;DHT22;3168;51.684;6.954;2022-08-25T06:23:40;21.10;1.00
6270;DHT22;3168;51.684;6.954;2022-08-25T06:26:08;21.20;1.00
6270;DHT22;3168;51.684;6.954;2022-08-25T06:28:32;21.30;1.00
6270;DHT22;3168;51.684;6.954;2022-08-25T06:30:59;21.40;1.00
6270;DHT22;3168;51.684;6.954;2022-08-25T06:33:24;21.50;1.00
6270;DHT22;3168;51.684;6.954;2022-08-25T06:35:51;21.50;1.00
6270;DHT22;3168;51.684;6.954;2022-08-25T06:38:15;21.70;1.00
6270;DHT22;3168;51.684;6.954;2022-08-25T06:40:41;21.80;1.00
6270;DHT22;3168;51.684;6.954;2022-08-25T06:43:07;21.90;1.00
6270;DHT22;3168;51.684;6.954;2022-08-25T06:45:33;22.00;1.00
6270;DHT22;3168;51.684;6.954;2022-08-25T06:47:59;22.10;1.00
6270;DHT22;3168;51.684;6.954;2022-08-25T06:50:25;22.20;1.00
6270;DHT22;3168;51.684;6.954;2022-08-25T06:52:51;22.20;1.00
6270;DHT22;3168;51.684;6.954;2022-08-25T06:55:17;22.20;1.00
6270;DHT22;3168;51.684;6.954;2022-08-25T06:57:43;22.40;1.00
6270;DHT22;3168;51.684;6.954;2022-08-25T07:00:09;22.50;1.00
6270;DHT22;3168;51.684;6.954;2022-08-25T07:02:35;22.50;1.00
6270;DHT22;3168;51.684;6.954;2022-08-25T07:05:01;22.70;1.00
6270;DHT22;3168;51.684;6.954;2022-08-25T07:07:27;22.80;1.00
6270;DHT22;3168;51.684;6.954;2022-08-25T07:09:53;22.90;1.00
6270;DHT22;3168;51.684;6.954;2022-08-25T07:12:19;23.10;1.00
6270;DHT22;3168;51.684;6.954;2022-08-25T07:14:44;23.20;1.00
6270;DHT22;3168;51.684;6.954;2022-08-25T07:17:10;23.30;1.00
6270;DHT22;3168;51.684;6.954;2022-08-25T07:19:36;23.40;1.00
6270;DHT22;3168;51.684;6.954;2022-08-25T07:22:02;23.30;1.00
6270;DHT22;3168;51.684;6.954;2022-08-25T07:24:27;23.50;1.00
6270;DHT22;3168;51.684;6.954;2022-08-25T07:26:53;23.60;1.00
6270;DHT22;3168;51.684;6.954;2022-08-25T07:29:22;23.70;1.00
6270;DHT22;3168;51.684;6.954;2022-08-25T07:31:46;23.80;1.00
6270;DHT22;3168;51.684;6.954;2022-08-25T07:34:12;23.90;1.00
6270;DHT22;3168;51.684;6.954;2022-08-25T07:36:44;24.00;1.00
6270;DHT22;3168;51.684;6.954;2022-08-25T07:39:10;24.20;1.00
6270;DHT22;3168;51.684;6.954;2022-08-25T07:41:37;24.20;1.00
6270;DHT22;3168;51.684;6.954;2022-08-25T07:44:03;24.30;1.00
6270;DHT22;3168;51.684;6.954;2022-08-25T07:46:28;24.40;1.00
6270;DHT22;3168;51.684;6.954;2022-08-25T07:48:54;24.40;1.00
6270;DHT22;3168;51.684;6.954;2022-08-25T07:51:20;24.60;1.00
6270;DHT22;3168;51.684;6.954;2022-08-25T07:53:46;24.60;1.00
6270;DHT22;3168;51.684;6.954;2022-08-25T07:56:13;24.80;1.00
6270;DHT22;3168;51.684;6.954;2022-08-25T07:58:39;24.80;1.00
6270;DHT22;3168;51.684;6.954;2022-08-25T08:01:04;24.90;1.00
6270;DHT22;3168;51.684;6.954;2022-08-25T08:03:30;24.90;1.00
6270;DHT22;3168;51.684;6.954;2022-08-25T08:05:56;25.00;1.00
6270;DHT22;3168;51.684;6.954;2022-08-25T08:08:22;25.00;1.00
6270;DHT22;3168;51.684;6.954;2022-08-25T08:10:47;25.10;1.00
6270;DHT22;3168;51.684;6.954;2022-08-25T08:13:13;25.30;1.00
6270;DHT22;3168;51.684;6.954;2022-08-25T08:15:41;25.30;1.00
6270;DHT22;3168;51.684;6.954;2022-08-25T08:18:05;25.30;1.00
6270;DHT22;3168;51.684;6.954;2022-08-25T08:20:31;25.50;1.00
6270;DHT22;3168;51.684;6.954;2022-08-25T08:22:57;25.50;1.00
6270;DHT22;3168;51.684;6.954;2022-08-25T08:25:23;25.60;1.00
6270;DHT22;3168;51.684;6.954;2022-08-25T08:27:48;25.70;1.00
6270;DHT22;3168;51.684;6.954;2022-08-25T08:30:14;25.80;1.00
6270;DHT22;3168;51.684;6.954;2022-08-25T08:32:40;25.90;1.00
6270;DHT22;3168;51.684;6.954;2022-08-25T08:35:07;25.90;1.00
6270;DHT22;3168;51.684;6.954;2022-08-25T08:37:32;26.10;1.00
6270;DHT22;3168;51.684;6.954;2022-08-25T08:39:58;26.30;1.00
6270;DHT22;3168;51.684;6.954;2022-08-25T08:45:05;26.50;1.00
6270;DHT22;3168;51.684;6.954;2022-08-25T08:47:37;26.60;1.00
6270;DHT22;3168;51.684;6.954;2022-08-25T08:52:47;26.90;1.00
6270;DHT22;3168;51.684;6.954;2022-08-25T08:55:17;27.10;1.00
6270;DHT22;3168;51.684;6.954;2022-08-25T08:57:42;27.20;1.00
6270;DHT22;3168;51.684;6.954;2022-08-25T09:00:07;27.20;1.00
6270;DHT22;3168;51.684;6.954;2022-08-25T09:02:35;27.40;1.00
6270;DHT22;3168;51.684;6.954;2022-08-25T09:05:00;27.40;1.00
6270;DHT22;3168;51.684;6.954;2022-08-25T09:07:29;27.40;1.00
6270;DHT22;3168;51.684;6.954;2022-08-25T09:09:51;27.40;1.00
6270;DHT22;3168;51.684;6.954;2022-08-25T09:15:55;27.60;1.00
6270;DHT22;3168;51.684;6.954;2022-08-25T09:18:11;27.60;1.00
6270;DHT22;3168;51.684;6.954;2022-08-25T09:20:41;27.70;1.00
6270;DHT22;3168;51.684;6.954;2022-08-25T09:26:06;27.80;1.00
6270;DHT22;3168;51.684;6.954;2022-08-25T09:28:36;28.00;1.00
6270;DHT22;3168;51.684;6.954;2022-08-25T09:31:01;28.10;1.00
6270;DHT22;3168;51.684;6.954;2022-08-25T09:33:27;28.30;1.00
6270;DHT22;3168;51.684;6.954;2022-08-25T09:35:52;28.40;1.00
6270;DHT22;3168;51.684;6.954;2022-08-25T09:38:17;28.40;1.00
6270;DHT22;3168;51.684;6.954;2022-08-25T09:40:46;28.40;1.00
6270;DHT22;3168;51.684;6.954;2022-08-25T09:43:34;28.40;1.00
6270;DHT22;3168;51.684;6.954;2022-08-25T09:46:15;28.60;1.00
6270;DHT22;3168;51.684;6.954;2022-08-25T09:48:42;28.50;1.00
6270;DHT22;3168;51.684;6.954;2022-08-25T09:51:34;28.60;1.00
6270;DHT22;3168;51.684;6.954;2022-08-25T09:54:02;28.60;1.00
6270;DHT22;3168;51.684;6.954;2022-08-25T09:56:26;28.70;1.00
6270;DHT22;3168;51.684;6.954;2022-08-25T09:58:51;28.80;1.00
6270;DHT22;3168;51.684;6.954;2022-08-25T10:01:18;28.90;1.00
6270;DHT22;3168;51.684;6.954;2022-08-25T10:03:55;29.20;1.00
6270;DHT22;3168;51.684;6.954;2022-08-25T10:06:19;29.10;1.00
6270;DHT22;3168;51.684;6.954;2022-08-25T10:08:56;29.10;1.00
6270;DHT22;3168;51.684;6.954;2022-08-25T10:11:36;29.00;1.00
6270;DHT22;3168;51.684;6.954;2022-08-25T10:14:02;29.20;1.00
6270;DHT22;3168;51.684;6.954;2022-08-25T10:16:28;29.40;1.00
6270;DHT22;3168;51.684;6.954;2022-08-25T10:19:01;29.60;1.00
6270;DHT22;3168;51.684;6.954;2022-08-25T10:21:26;29.90;1.00
6270;DHT22;3168;51.684;6.954;2022-08-25T10:23:52;29.80;1.00
6270;DHT22;3168;51.684;6.954;2022-08-25T10:26:27;29.70;1.00
6270;DHT22;3168;51.684;6.954;2022-08-25T10:28:59;29.80;1.00
6270;DHT22;3168;51.684;6.954;2022-08-25T10:31:24;29.70;1.00
6270;DHT22;3168;51.684;6.954;2022-08-25T10:34:02;29.70;1.00
6270;DHT22;3168;51.684;6.954;2022-08-25T10:36:32;29.60;1.00
6270;DHT22;3168;51.684;6.954;2022-08-25T10:38:56;29.60;1.00
6270;DHT22;3168;51.684;6.954;2022-08-25T10:41:45;29.70;1.00
6270;DHT22;3168;51.684;6.954;2022-08-25T10:44:25;29.70;1.00
6270;DHT22;3168;51.684;6.954;2022-08-25T10:47:01;29.80;1.00
6270;DHT22;3168;51.684;6.954;2022-08-25T10:49:29;29.90;1.00
6270;DHT22;3168;51.684;6.954;2022-08-25T10:51:55;30.00;1.00
6270;DHT22;3168;51.684;6.954;2022-08-25T10:54:56;30.10;1.00
6270;DHT22;3168;51.684;6.954;2022-08-25T10:57:21;30.10;1.00
6270;DHT22;3168;51.684;6.954;2022-08-25T11:00:05;30.30;1.00
6270;DHT22;3168;51.684;6.954;2022-08-25T11:02:58;30.30;1.00
6270;DHT22;3168;51.684;6.954;2022-08-25T11:05:25;30.20;1.00
6270;DHT22;3168;51.684;6.954;2022-08-25T11:07:49;30.10;1.00
6270;DHT22;3168;51.684;6.954;2022-08-25T11:10:16;30.20;1.00
6270;DHT22;3168;51.684;6.954;2022-08-25T11:12:42;30.30;1.00
6270;DHT22;3168;51.684;6.954;2022-08-25T11:15:09;30.50;1.00
6270;DHT22;3168;51.684;6.954;2022-08-25T11:17:38;30.60;1.00
6270;DHT22;3168;51.684;6.954;2022-08-25T11:20:03;30.70;1.00
6270;DHT22;3168;51.684;6.954;2022-08-25T11:22:32;30.60;1.00
6270;DHT22;3168;51.684;6.954;2022-08-25T11:25:02;30.80;1.00
6270;DHT22;3168;51.684;6.954;2022-08-25T11:27:46;30.80;1.00
6270;DHT22;3168;51.684;6.954;2022-08-25T11:30:12;30.90;1.00
6270;DHT22;3168;51.684;6.954;2022-08-25T11:32:36;30.90;1.00
6270;DHT22;3168;51.684;6.954;2022-08-25T11:35:04;30.70;1.00
6270;DHT22;3168;51.684;6.954;2022-08-25T11:37:29;30.70;1.00
6270;DHT22;3168;51.684;6.954;2022-08-25T11:40:05;30.70;1.00
6270;DHT22;3168;51.684;6.954;2022-08-25T11:42:42;30.90;1.00
6270;DHT22;3168;51.684;6.954;2022-08-25T11:53:18;31.40;1.00
6270;DHT22;3168;51.684;6.954;2022-08-25T11:55:45;31.60;1.00
6270;DHT22;3168;51.684;6.954;2022-08-25T12:00:47;31.00;1.00
6270;DHT22;3168;51.684;6.954;2022-08-25T12:05:52;31.40;1.00
6270;DHT22;3168;51.684;6.954;2022-08-25T12:08:27;31.50;1.00
6270;DHT22;3168;51.684;6.954;2022-08-25T12:11:08;31.60;1.00
6270;DHT22;3168;51.684;6.954;2022-08-25T12:13:43;31.60;1.00
6270;DHT22;3168;51.684;6.954;2022-08-25T12:18:46;31.90;1.00
6270;DHT22;3168;51.684;6.954;2022-08-25T12:21:12;31.80;1.00
6270;DHT22;3168;51.684;6.954;2022-08-25T12:23:43;31.70;1.00
6270;DHT22;3168;51.684;6.954;2022-08-25T12:26:17;31.70;1.00
6270;DHT22;3168;51.684;6.954;2022-08-25T12:28:46;32.00;1.00
6270;DHT22;3168;51.684;6.954;2022-08-25T12:31:16;32.20;1.00
6270;DHT22;3168;51.684;6.954;2022-08-25T12:33:44;32.40;1.00
6270;DHT22;3168;51.684;6.954;2022-08-25T12:36:06;32.60;1.00
6270;DHT22;3168;51.684;6.954;2022-08-25T12:38:42;32.60;1.00
6270;DHT22;3168;51.684;6.954;2022-08-25T12:41:11;32.70;1.00
6270;DHT22;3168;51.684;6.954;2022-08-25T12:43:37;32.40;1.00
6270;DHT22;3168;51.684;6.954;2022-08-25T12:48:39;32.30;1.00
6270;DHT22;3168;51.684;6.954;2022-08-25T12:51:05;32.40;1.00
6270;DHT22;3168;51.684;6.954;2022-08-25T12:53:37;32.40;1.00
6270;DHT22;3168;51.684;6.954;2022-08-25T12:56:04;32.30;1.00
6270;DHT22;3168;51.684;6.954;2022-08-25T12:58:31;32.40;1.00
6270;DHT22;3168;51.684;6.954;2022-08-25T13:01:19;32.30;1.00
6270;DHT22;3168;51.684;6.954;2022-08-25T13:03:56;32.20;1.00
6270;DHT22;3168;51.684;6.954;2022-08-25T13:09:29;32.50;1.00
6270;DHT22;3168;51.684;6.954;2022-08-25T13:12:23;32.50;1.00
6270;DHT22;3168;51.684;6.954;2022-08-25T13:14:53;32.30;1.00
6270;DHT22;3168;51.684;6.954;2022-08-25T13:17:26;32.50;1.00
6270;DHT22;3168;51.684;6.954;2022-08-25T13:19:51;32.60;1.00
6270;DHT22;3168;51.684;6.954;2022-08-25T13:22:17;32.60;1.00
6270;DHT22;3168;51.684;6.954;2022-08-25T13:24:44;32.80;1.00
6270;DHT22;3168;51.684;6.954;2022-08-25T13:27:16;32.70;1.00
6270;DHT22;3168;51.684;6.954;2022-08-25T13:29:36;32.80;1.00
6270;DHT22;3168;51.684;6.954;2022-08-25T13:32:02;32.80;1.00
6270;DHT22;3168;51.684;6.954;2022-08-25T13:34:27;32.90;1.00
6270;DHT22;3168;51.684;6.954;2022-08-25T13:36:52;33.20;1.00
6270;DHT22;3168;51.684;6.954;2022-08-25T13:39:24;33.50;1.00
6270;DHT22;3168;51.684;6.954;2022-08-25T13:41:52;33.30;1.00
6270;DHT22;3168;51.684;6.954;2022-08-25T13:44:17;33.20;1.00
6270;DHT22;3168;51.684;6.954;2022-08-25T13:46:42;32.80;1.00
6270;DHT22;3168;51.684;6.954;2022-08-25T13:49:08;32.30;1.00
6270;DHT22;3168;51.684;6.954;2022-08-25T13:51:34;31.70;1.00
6270;DHT22;3168;51.684;6.954;2022-08-25T13:54:02;31.70;1.00
6270;DHT22;3168;51.684;6.954;2022-08-25T13:56:37;31.90;1.00
6270;DHT22;3168;51.684;6.954;2022-08-25T13:59:03;31.90;1.00
6270;DHT22;3168;51.684;6.954;2022-08-25T14:01:29;32.00;1.00
6270;DHT22;3168;51.684;6.954;2022-08-25T14:03:54;32.10;1.00
6270;DHT22;3168;51.684;6.954;2022-08-25T14:06:21;32.30;1.00
6270;DHT22;3168;51.684;6.954;2022-08-25T14:08:47;32.60;1.00
6270;DHT22;3168;51.684;6.954;2022-08-25T14:11:31;33.00;1.00
6270;DHT22;3168;51.684;6.954;2022-08-25T14:14:00;33.20;1.00
6270;DHT22;3168;51.684;6.954;2022-08-25T14:16:25;33.10;1.00
6270;DHT22;3168;51.684;6.954;2022-08-25T14:18:52;33.00;1.00
6270;DHT22;3168;51.684;6.954;2022-08-25T14:21:17;33.00;1.00
6270;DHT22;3168;51.684;6.954;2022-08-25T14:23:42;33.10;1.00
6270;DHT22;3168;51.684;6.954;2022-08-25T14:26:08;33.40;1.00
6270;DHT22;3168;51.684;6.954;2022-08-25T14:28:34;33.80;1.00
6270;DHT22;3168;51.684;6.954;2022-08-25T14:31:03;34.10;1.00
6270;DHT22;3168;51.684;6.954;2022-08-25T14:33:28;34.30;1.00
6270;DHT22;3168;51.684;6.954;2022-08-25T14:35:53;34.00;1.00
6270;DHT22;3168;51.684;6.954;2022-08-25T14:38:19;34.00;1.00
6270;DHT22;3168;51.684;6.954;2022-08-25T14:40:44;34.10;1.00
6270;DHT22;3168;51.684;6.954;2022-08-25T14:43:10;34.30;1.00
6270;DHT22;3168;51.684;6.954;2022-08-25T14:45:37;34.70;1.00
6270;DHT22;3168;51.684;6.954;2022-08-25T14:48:05;35.30;1.00
6270;DHT22;3168;51.684;6.954;2022-08-25T14:50:30;35.20;1.00
6270;DHT22;3168;51.684;6.954;2022-08-25T14:52:56;35.60;1.00
6270;DHT22;3168;51.684;6.954;2022-08-25T14:55:22;35.60;1.00
6270;DHT22;3168;51.684;6.954;2022-08-25T14:57:48;35.30;1.00
6270;DHT22;3168;51.684;6.954;2022-08-25T15:00:14;35.70;1.00
6270;DHT22;3168;51.684;6.954;2022-08-25T15:02:40;35.40;1.00
6270;DHT22;3168;51.684;6.954;2022-08-25T15:05:06;35.30;1.00
6270;DHT22;3168;51.684;6.954;2022-08-25T15:07:32;35.10;1.00
6270;DHT22;3168;51.684;6.954;2022-08-25T15:10:04;35.20;1.00
6270;DHT22;3168;51.684;6.954;2022-08-25T15:12:30;35.50;1.00
6270;DHT22;3168;51.684;6.954;2022-08-25T15:14:56;35.60;1.00
6270;DHT22;3168;51.684;6.954;2022-08-25T15:17:22;35.90;1.00
6270;DHT22;3168;51.684;6.954;2022-08-25T15:19:48;35.70;1.00
6270;DHT22;3168;51.684;6.954;2022-08-25T15:22:14;35.80;1.00
6270;DHT22;3168;51.684;6.954;2022-08-25T15:24:39;36.20;1.00
6270;DHT22;3168;51.684;6.954;2022-08-25T15:27:05;36.10;1.00
6270;DHT22;3168;51.684;6.954;2022-08-25T15:29:31;36.20;1.00
6270;DHT22;3168;51.684;6.954;2022-08-25T15:31:57;36.10;1.00
6270;DHT22;3168;51.684;6.954;2022-08-25T15:34:23;36.40;1.00
6270;DHT22;3168;51.684;6.954;2022-08-25T15:36:49;36.50;1.00
6270;DHT22;3168;51.684;6.954;2022-08-25T15:39:15;36.20;1.00
6270;DHT22;3168;51.684;6.954;2022-08-25T15:41:40;35.80;1.00
6270;DHT22;3168;51.684;6.954;2022-08-25T15:44:07;35.10;1.00
6270;DHT22;3168;51.684;6.954;2022-08-25T15:46:33;34.30;1.00
6270;DHT22;3168;51.684;6.954;2022-08-25T15:48:58;33.30;1.00
6270;DHT22;3168;51.684;6.954;2022-08-25T15:51:26;33.10;1.00
6270;DHT22;3168;51.684;6.954;2022-08-25T15:53:50;32.70;1.00
6270;DHT22;3168;51.684;6.954;2022-08-25T15:56:16;32.50;1.00
6270;DHT22;3168;51.684;6.954;2022-08-25T15:58:42;32.20;1.00
6270;DHT22;3168;51.684;6.954;2022-08-25T16:01:11;32.30;1.00
6270;DHT22;3168;51.684;6.954;2022-08-25T16:03:33;32.40;1.00
6270;DHT22;3168;51.684;6.954;2022-08-25T16:05:59;32.50;1.00
6270;DHT22;3168;51.684;6.954;2022-08-25T16:08:25;32.40;1.00
6270;DHT22;3168;51.684;6.954;2022-08-25T16:10:51;32.40;1.00
6270;DHT22;3168;51.684;6.954;2022-08-25T16:13:16;32.50;1.00
6270;DHT22;3168;51.684;6.954;2022-08-25T16:15:45;32.40;1.00
6270;DHT22;3168;51.684;6.954;2022-08-25T16:18:08;32.40;1.00
6270;DHT22;3168;51.684;6.954;2022-08-25T16:20:34;32.30;1.00
6270;DHT22;3168;51.684;6.954;2022-08-25T16:23:00;32.20;1.00
6270;DHT22;3168;51.684;6.954;2022-08-25T16:25:26;32.20;1.00
6270;DHT22;3168;51.684;6.954;2022-08-25T16:27:51;32.10;1.00
6270;DHT22;3168;51.684;6.954;2022-08-25T16:30:17;32.10;1.00
6270;DHT22;3168;51.684;6.954;2022-08-25T16:32:44;32.00;1.00
6270;DHT22;3168;51.684;6.954;2022-08-25T16:35:09;32.10;1.00
6270;DHT22;3168;51.684;6.954;2022-08-25T16:37:35;32.10;1.00
6270;DHT22;3168;51.684;6.954;2022-08-25T16:40:01;32.00;1.00
6270;DHT22;3168;51.684;6.954;2022-08-25T16:42:28;32.00;1.00
6270;DHT22;3168;51.684;6.954;2022-08-25T16:44:53;31.90;1.00
6270;DHT22;3168;51.684;6.954;2022-08-25T16:47:19;31.90;1.00
6270;DHT22;3168;51.684;6.954;2022-08-25T16:49:45;31.90;1.00
6270;DHT22;3168;51.684;6.954;2022-08-25T16:52:11;32.00;1.00